Time;durP1;ratioP1;P1;durP2;ratioP2;P2;SDS_P1;SDS_P2;PMS_P1;PMS_P2;Temp;Humidity;BMP_temperature;BMP_pressure;BME280_temperature;BME280_humidity;BME280_pressure;Samples;Min_cycle;Max_cycle;Signal;HPM_P1;HPM_P2
2023/03/03 00:01:34;;;;;;;72.00;29.50;;;;;;;6.41;100.00;96401.00;5068381;28;20084;-54
2023/03/03 00:04:02;;;;;;;71.35;26.77;;;;;;;6.01;100.00;96398.84;5066662;28;20118;-53
2023/03/03 00:06:31;;;;;;;75.80;28.60;;;;;;;6.34;100.00;96398.00;5067502;28;20078;-50
2023/03/03 00:08:59;;;;;;;75.60;29.15;;;;;;;6.17;100.00;96398.50;5065883;28;20111;-52
2023/03/03 00:11:28;;;;;;;76.22;28.33;;;;;;;6.71;100.00;96400.34;5068012;28;20131;-49
2023/03/03 00:13:56;;;;;;;75.72;28.55;;;;;;;6.80;100.00;96402.22;5065785;28;20067;-53
2023/03/03 00:16:32;;;;;;;70.65;27.13;;;;;;;6.33;100.00;96401.59;5066167;28;20075;-51
2023/03/03 00:19:01;;;;;;;77.13;27.52;;;;;;;6.81;100.00;96392.56;5067834;28;20068;-48
2023/03/03 00:21:30;;;;;;;73.65;27.30;;;;;;;6.21;100.00;96396.47;5066202;28;20076;-54
2023/03/03 00:24:14;;;;;;;70.00;27.17;;;;;;;6.58;100.00;96392.63;5067154;28;20091;-52
2023/03/03 00:26:44;;;;;;;74.13;26.80;;;;;;;5.94;100.00;96402.88;5064131;28;20572;-51
2023/03/03 00:29:34;;;;;;;75.05;26.65;;;;;;;6.71;100.00;96399.50;5066707;28;20076;-51
2023/03/03 00:32:25;;;;;;;75.00;27.03;;;;;;;5.75;100.00;96392.97;5065459;28;20092;-50
2023/03/03 00:34:55;;;;;;;65.57;25.25;;;;;;;5.91;100.00;96408.31;5066111;28;20955;-51
2023/03/03 00:37:27;;;;;;;72.93;27.10;;;;;;;6.41;100.00;96401.81;5066299;28;20076;-52
2023/03/03 00:40:03;;;;;;;72.05;26.63;;;;;;;6.27;100.00;96398.63;5066047;28;20076;-52
2023/03/03 00:42:34;;;;;;;69.30;26.73;;;;;;;5.98;100.00;96398.22;5067518;28;20075;-51
2023/03/03 00:45:18;;;;;;;78.85;28.40;;;;;;;6.40;100.00;96392.31;5067202;28;20072;-52
2023/03/03 00:47:48;;;;;;;70.65;26.60;;;;;;;6.42;100.00;96398.22;5067060;28;20068;-54
2023/03/03 00:50:25;;;;;;;72.43;26.67;;;;;;;6.35;100.00;96401.47;5065178;28;20076;-48
2023/03/03 00:53:05;;;;;;;69.90;26.15;;;;;;;6.20;100.00;96402.66;5066431;28;20083;-49
2023/03/03 00:55:35;;;;;;;76.45;28.73;;;;;;;6.68;100.00;96397.16;5065176;28;20091;-54
2023/03/03 00:58:04;;;;;;;78.72;27.95;;;;;;;6.38;100.00;96407.28;5068226;28;20087;-48
2023/03/03 01:00:32;;;;;;;64.05;26.15;;;;;;;6.32;100.00;96404.31;5066389;28;20087;-49
2023/03/03 01:03:05;;;;;;;67.80;25.98;;;;;;;6.78;100.00;96400.66;5066886;28;20087;-56
2023/03/03 01:05:33;;;;;;;74.40;29.02;;;;;;;6.73;100.00;96405.47;5066604;28;20600;-52
2023/03/03 01:08:02;;;;;;;73.38;28.40;;;;;;;6.78;100.00;96404.16;5066854;28;20092;-49
2023/03/03 01:10:33;;;;;;;71.20;28.02;;;;;;;6.75;100.00;96399.16;5065083;28;20084;-52
2023/03/03 01:13:02;;;;;;;73.93;29.08;;;;;;;7.02;100.00;96406.59;5060734;28;20091;-54
2023/03/03 01:15:30;;;;;;;74.85;28.98;;;;;;;6.61;100.00;96397.63;5063647;28;20087;-48
2023/03/03 01:17:58;;;;;;;76.28;28.65;;;;;;;6.52;100.00;96394.91;5066010;28;20079;-52
2023/03/03 01:20:28;;;;;;;75.35;28.95;;;;;;;6.59;100.00;96394.28;5065051;28;20533;-50
2023/03/03 01:22:56;;;;;;;76.03;29.83;;;;;;;5.82;100.00;96399.38;5063747;28;20306;-49
2023/03/03 01:25:24;;;;;;;73.15;27.80;;;;;;;6.61;100.00;96383.69;5064485;28;20068;-54
2023/03/03 01:27:53;;;;;;;76.10;26.92;;;;;;;6.57;100.00;96383.13;5066712;28;20076;-50
2023/03/03 01:30:21;;;;;;;80.75;29.35;;;;;;;6.03;100.00;96388.25;5063798;28;20080;-48
2023/03/03 01:32:49;;;;;;;69.93;28.98;;;;;;;6.30;100.00;96388.72;5065337;28;20064;-47
2023/03/03 01:35:18;;;;;;;76.38;28.42;;;;;;;6.16;100.00;96389.81;5066131;28;20511;-54
2023/03/03 01:37:48;;;;;;;70.03;26.95;;;;;;;5.53;100.00;96400.75;5065474;28;20077;-52
2023/03/03 01:40:19;;;;;;;74.38;27.05;;;;;;;6.00;100.00;96389.31;5064805;28;20084;-55
2023/03/03 01:42:48;;;;;;;69.97;27.83;;;;;;;6.01;100.00;96390.16;5064877;28;20032;-50
2023/03/03 01:45:21;;;;;;;80.97;29.63;;;;;;;6.14;100.00;96394.31;5064585;28;20075;-48
2023/03/03 01:47:57;;;;;;;77.78;28.77;;;;;;;6.14;100.00;96390.88;5066151;28;20461;-52
2023/03/03 01:50:31;;;;;;;73.60;28.15;;;;;;;5.97;100.00;96401.81;5065365;28;20079;-54
2023/03/03 01:53:03;;;;;;;81.15;30.52;;;;;;;5.90;100.00;96404.88;5062998;28;20537;-53
2023/03/03 01:55:34;;;;;;;73.93;26.52;;;;;;;5.66;100.00;96406.72;5064196;28;20071;-50
2023/03/03 01:58:06;;;;;;;74.60;26.27;;;;;;;6.25;100.00;96398.72;5065790;28;20072;-53
2023/03/03 02:00:36;;;;;;;78.40;27.10;;;;;;;6.03;100.00;96396.13;5064663;28;20447;-49
2023/03/03 02:03:05;;;;;;;75.75;25.92;;;;;;;6.01;100.00;96403.25;5064684;28;20083;-49
2023/03/03 02:05:35;;;;;;;75.45;27.38;;;;;;;6.02;100.00;96410.13;5064900;28;20558;-51
2023/03/03 02:08:05;;;;;;;73.32;27.25;;;;;;;5.91;100.00;96409.13;5063075;28;20458;-53
2023/03/03 02:10:34;;;;;;;71.05;25.48;;;;;;;5.79;100.00;96410.09;5061059;28;20080;-54
2023/03/03 02:13:02;;;;;;;78.93;27.38;;;;;;;5.59;100.00;96403.72;5063473;28;20064;-52
2023/03/03 02:15:32;;;;;;;74.65;26.67;;;;;;;5.67;100.00;96406.59;5064360;28;20060;-54
2023/03/03 02:18:04;;;;;;;74.78;26.85;;;;;;;6.05;100.00;96397.63;5064756;28;20061;-52
2023/03/03 02:20:45;;;;;;;77.57;27.77;;;;;;;6.06;100.00;96401.94;5060376;28;20064;-54
2023/03/03 02:23:17;;;;;;;;;;;;;;;6.10;100.00;96392.91;5064048;28;20072;-48
2023/03/03 02:25:50;;;;;;;78.03;28.52;;;;;;;6.23;100.00;96387.56;5064533;28;19963;-51
2023/03/03 02:28:20;;;;;;;78.30;29.92;;;;;;;6.09;100.00;96390.38;5065231;28;20086;-51
2023/03/03 02:30:48;;;;;;;72.50;27.20;;;;;;;6.06;100.00;96386.25;5063003;28;20075;-56
2023/03/03 02:33:16;;;;;;;78.75;29.02;;;;;;;5.74;100.00;96388.66;5064621;28;20079;-50
2023/03/03 02:35:45;;;;;;;80.72;28.88;;;;;;;5.92;100.00;96378.59;5065371;28;20076;-50
2023/03/03 02:38:19;;;;;;;80.82;29.33;;;;;;;5.99;100.00;96381.56;5064561;28;20072;-50
2023/03/03 02:40:57;;;;;;;77.63;26.75;;;;;;;5.61;100.00;96374.84;5065244;28;20072;-48
2023/03/03 02:43:33;;;;;;;64.60;25.13;;;;;;;5.56;100.00;96380.41;5064927;28;20080;-52
2023/03/03 02:46:01;;;;;;;74.10;26.45;;;;;;;5.97;100.00;96376.47;5065494;28;20473;-51
2023/03/03 02:48:30;;;;;;;72.38;26.38;;;;;;;5.55;100.00;96389.22;5065202;28;20072;-52
2023/03/03 02:50:58;;;;;;;78.60;28.25;;;;;;;5.51;100.00;96390.41;5063538;28;20064;-50
2023/03/03 02:53:26;;;;;;;72.00;25.73;;;;;;;5.88;100.00;96390.22;5064150;28;20084;-49
2023/03/03 02:55:54;;;;;;;78.32;28.08;;;;;;;5.72;100.00;96394.00;5060109;28;20073;-52
2023/03/03 02:58:23;;;;;;;79.50;27.30;;;;;;;6.41;100.00;96388.72;5062694;28;20060;-52
2023/03/03 03:00:54;;;;;;;79.55;28.42;;;;;;;6.09;100.00;96388.63;5062279;28;20174;-54
2023/03/03 03:03:22;;;;;;;78.75;27.42;;;;;;;5.84;100.00;96392.25;5057358;28;20072;-51
2023/03/03 03:05:51;;;;;;;76.00;27.48;;;;;;;6.27;100.00;96383.75;5059294;28;20079;-54
2023/03/03 03:08:19;;;;;;;77.03;26.85;;;;;;;5.96;100.00;96393.13;5064990;28;20135;-51
2023/03/03 03:10:48;;;;;;;67.18;26.13;;;;;;;6.15;100.00;96395.16;5064783;28;20076;-51
2023/03/03 03:13:16;;;;;;;69.95;26.02;;;;;;;6.02;100.00;96399.66;5062050;28;20083;-48
2023/03/03 03:15:46;;;;;;;77.97;26.45;;;;;;;6.32;100.00;96397.28;5065318;28;20064;-48
2023/03/03 03:18:16;;;;;;;72.22;27.48;;;;;;;6.76;100.00;96385.09;5069934;28;20088;-50
2023/03/03 03:20:45;;;;;;;74.00;26.35;;;;;;;7.00;100.00;96384.91;5067906;28;20060;-53
2023/03/03 03:23:15;;;;;;;70.03;26.60;;;;;;;7.01;100.00;96378.69;5067924;28;20087;-52
2023/03/03 03:25:45;;;;;;;72.25;27.83;;;;;;;6.28;100.00;96390.63;5066797;28;21064;-54
2023/03/03 03:28:14;;;;;;;67.88;26.33;;;;;;;7.00;100.00;96378.81;5068700;28;20085;-56
2023/03/03 03:30:44;;;;;;;77.28;28.83;;;;;;;6.89;100.00;96379.69;5067364;28;20083;-53
2023/03/03 03:33:13;;;;;;;72.78;26.83;;;;;;;6.47;100.00;96376.06;5068033;28;20459;-51
2023/03/03 03:35:44;;;;;;;72.97;26.55;;;;;;;6.41;100.00;96385.28;5068015;28;20551;-54
2023/03/03 03:38:13;;;;;;;68.03;27.25;;;;;;;7.17;100.00;96380.91;5068137;28;20076;-49
2023/03/03 03:40:42;;;;;;;68.13;25.70;;;;;;;7.17;100.00;96382.69;5064996;28;20084;-51
2023/03/03 03:43:10;;;;;;;71.55;28.02;;;;;;;7.14;100.00;96387.22;5069325;28;20135;-49
2023/03/03 03:45:38;;;;;;;70.30;27.38;;;;;;;6.64;100.00;96389.53;5068437;28;20091;-52
2023/03/03 03:48:07;;;;;;;77.68;25.75;;;;;;;7.14;100.00;96389.84;5066429;28;20080;-52
2023/03/03 03:50:35;;;;;;;67.38;25.83;;;;;;;7.54;100.00;96394.44;5069588;28;20083;-49
2023/03/03 03:53:05;;;;;;;68.75;23.90;;;;;;;7.36;100.00;96385.44;5066747;28;20099;-49
2023/03/03 03:55:33;;;;;;;69.40;25.97;;;;;;;7.11;100.00;96390.09;5060094;28;20095;-56
2023/03/03 03:58:02;;;;;;;74.30;26.98;;;;;;;7.18;100.00;96389.59;5062635;28;20077;-50
2023/03/03 04:00:30;;;;;;;68.40;23.67;;;;;;;7.12;100.00;96390.91;5069146;28;20087;-48
2023/03/03 04:02:58;;;;;;;68.32;25.58;;;;;;;6.92;100.00;96403.03;5062639;28;20076;-48
2023/03/03 04:05:27;;;;;;;68.57;24.33;;;;;;;7.36;100.00;96401.19;5069688;28;20088;-56
2023/03/03 04:07:55;;;;;;;60.33;23.33;;;;;;;7.24;100.00;96404.84;5063579;28;20072;-55
2023/03/03 04:10:25;;;;;;;64.38;23.70;;;;;;;6.74;100.00;96401.88;5065516;28;20088;-56
2023/03/03 04:12:53;;;;;;;65.60;25.85;;;;;;;7.13;100.00;96397.84;5060398;28;20446;-54
2023/03/03 04:15:21;;;;;;;70.55;25.92;;;;;;;6.71;100.00;96396.88;5068970;28;20080;-54
2023/03/03 04:17:50;;;;;;;72.88;28.40;;;;;;;6.49;100.00;96405.63;5062976;28;20506;-54
2023/03/03 04:20:18;;;;;;;75.05;26.80;;;;;;;7.16;100.00;96410.72;5062347;28;20088;-49
2023/03/03 04:22:46;;;;;;;66.32;25.90;;;;;;;7.17;100.00;96401.88;5067711;28;20087;-50
2023/03/03 04:25:16;;;;;;;66.55;26.20;;;;;;;6.94;100.00;96397.66;5065387;28;20072;-49
2023/03/03 04:27:46;;;;;;;70.15;25.27;;;;;;;7.33;100.00;96386.56;5065852;28;20549;-49
2023/03/03 04:30:15;;;;;;;73.57;25.45;;;;;;;7.40;100.00;96392.13;5067981;28;20076;-53
2023/03/03 04:32:44;;;;;;;68.53;25.42;;;;;;;7.41;100.00;96390.34;5068079;28;20091;-56
2023/03/03 04:35:12;;;;;;;67.22;25.50;;;;;;;6.91;100.00;96388.25;5066250;28;20083;-51
2023/03/03 04:37:41;;;;;;;66.30;25.38;;;;;;;7.34;100.00;96382.97;5067119;28;20438;-54
2023/03/03 04:40:10;;;;;;;65.93;23.80;;;;;;;6.89;100.00;96385.78;5065460;28;20106;-52
2023/03/03 04:42:38;;;;;;;69.78;25.30;;;;;;;7.25;100.00;96383.72;5063190;28;20048;-55
2023/03/03 04:45:09;;;;;;;66.00;26.48;;;;;;;6.95;100.00;96379.22;5060982;28;20076;-52
2023/03/03 04:47:37;;;;;;;69.10;24.58;;;;;;;7.72;100.00;96386.00;5064136;28;20083;-52
2023/03/03 04:50:07;;;;;;;74.93;26.27;;;;;;;7.19;100.00;96386.00;5065896;28;20068;-49
2023/03/03 04:52:35;;;;;;;71.27;25.47;;;;;;;7.53;100.00;96384.88;5063121;28;20474;-54
2023/03/03 04:55:04;;;;;;;65.20;24.92;;;;;;;7.84;100.00;96391.06;5066036;28;21089;-49
2023/03/03 04:57:33;;;;;;;71.75;25.80;;;;;;;7.22;100.00;96391.84;5065331;28;20482;-48
2023/03/03 05:00:01;;;;;;;69.28;24.77;;;;;;;7.81;100.00;96383.44;5063112;28;20076;-48
2023/03/03 05:02:31;;;;;;;67.63;23.63;;;;;;;7.70;100.00;96386.09;5063861;28;20095;-53
2023/03/03 05:04:59;;;;;;;69.72;25.45;;;;;;;7.59;100.00;96388.81;5064478;28;20479;-52
2023/03/03 05:07:27;;;;;;;62.20;24.30;;;;;;;7.16;100.00;96388.88;5064243;28;20541;-47
2023/03/03 05:09:56;;;;;;;64.88;25.70;;;;;;;7.16;100.00;96388.88;5062172;28;20088;-52
2023/03/03 05:12:24;;;;;;;70.97;24.02;;;;;;;7.02;100.00;96390.84;5065140;28;20079;-53
2023/03/03 05:14:52;;;;;;;75.05;27.17;;;;;;;7.54;100.00;96391.81;5065244;28;20114;-47
2023/03/03 05:17:21;;;;;;;66.53;25.05;;;;;;;7.75;100.00;96388.38;5061784;28;20088;-54
2023/03/03 05:19:50;;;;;;;71.47;26.30;;;;;;;7.31;100.00;96393.72;5066481;28;20095;-52
2023/03/03 05:22:18;;;;;;;61.78;24.02;;;;;;;7.33;100.00;96394.44;5064433;28;20091;-52
2023/03/03 05:24:48;;;;;;;69.50;24.85;;;;;;;7.19;100.00;96399.97;5063448;28;20080;-54
2023/03/03 05:27:16;;;;;;;60.50;22.17;;;;;;;7.38;100.00;96396.66;5065307;28;20079;-47
2023/03/03 05:29:45;;;;;;;67.10;24.67;;;;;;;7.68;100.00;96389.84;5062527;28;20143;-51
2023/03/03 05:32:13;;;;;;;58.15;20.50;;;;;;;7.41;100.00;96401.66;5063127;28;20084;-55
2023/03/03 05:34:42;;;;;;;64.20;24.35;;;;;;;7.35;100.00;96400.38;5064423;28;20076;-51
2023/03/03 05:37:11;;;;;;;67.78;24.73;;;;;;;7.58;100.00;96403.72;5061290;28;20084;-54
2023/03/03 05:39:39;;;;;;;64.50;24.38;;;;;;;7.69;100.00;96407.25;5064126;28;20082;-49
2023/03/03 05:42:09;;;;;;;63.42;24.80;;;;;;;7.04;100.00;96411.69;5062116;28;20103;-48
2023/03/03 05:44:37;;;;;;;67.55;23.50;;;;;;;7.49;100.00;96414.16;5058435;28;20093;-50
2023/03/03 05:47:05;;;;;;;65.10;24.52;;;;;;;7.72;100.00;96410.44;5064001;28;20541;-53
2023/03/03 05:49:33;;;;;;;68.80;25.48;;;;;;;7.85;100.00;96407.63;5061823;28;20068;-52
2023/03/03 05:52:02;;;;;;;66.63;25.67;;;;;;;7.45;100.00;96415.34;5061756;28;20087;-53
2023/03/03 05:54:32;;;;;;;63.60;24.15;;;;;;;7.71;100.00;96413.19;5063288;28;20529;-55
2023/03/03 05:57:00;;;;;;;74.43;25.97;;;;;;;7.58;100.00;96416.84;5062118;28;20076;-49
2023/03/03 05:59:28;;;;;;;71.60;25.77;;;;;;;7.49;100.00;96422.84;5058010;28;20077;-52
2023/03/03 06:01:56;;;;;;;66.50;24.50;;;;;;;8.00;100.00;96418.63;5063687;28;20073;-51
2023/03/03 06:04:25;;;;;;;69.63;24.65;;;;;;;7.54;100.00;96419.84;5062038;28;20080;-53
2023/03/03 06:06:53;;;;;;;62.67;25.05;;;;;;;7.61;100.00;96421.00;5063992;28;20898;-54
2023/03/03 06:09:21;;;;;;;66.15;25.58;;;;;;;7.44;100.00;96426.81;5059354;28;20474;-56
2023/03/03 06:11:52;;;;;;;61.63;22.60;;;;;;;7.72;100.00;96433.25;5063118;28;20083;-52
2023/03/03 06:14:20;;;;;;;;;;;;;;;7.83;100.00;96434.00;5061444;28;20087;-54
2023/03/03 06:16:49;;;;;;;64.15;24.55;;;;;;;8.11;100.00;96431.69;5063462;28;20428;-52
2023/03/03 06:19:17;;;;;;;66.57;26.88;;;;;;;8.00;100.00;96437.00;5062121;28;20084;-54
2023/03/03 06:21:45;;;;;;;68.80;26.67;;;;;;;7.56;100.00;96444.16;5062721;28;20083;-54
2023/03/03 06:24:13;;;;;;;69.13;26.40;;;;;;;7.85;100.00;96442.59;5062592;28;20417;-52
2023/03/03 06:26:42;;;;;;;73.28;27.52;;;;;;;7.74;100.00;96440.03;5062832;28;20087;-54
2023/03/03 06:29:11;;;;;;;72.65;27.65;;;;;;;7.70;100.00;96440.41;5059977;28;20076;-49
2023/03/03 06:31:43;;;;;;;67.93;26.08;;;;;;;8.24;100.00;96441.97;5059538;28;20080;-50
2023/03/03 06:34:11;;;;;;;73.28;28.30;;;;;;;7.68;100.00;96439.72;5059556;28;20077;-53
2023/03/03 06:36:40;;;;;;;71.78;27.75;;;;;;;7.03;100.00;96441.50;5061422;28;20576;-52
2023/03/03 06:39:08;;;;;;;71.95;28.10;;;;;;;7.96;100.00;96446.94;5060134;28;20091;-52
2023/03/03 06:41:37;;;;;;;75.65;28.90;;;;;;;7.57;100.00;96436.19;5062140;28;20080;-53
2023/03/03 06:44:05;;;;;;;70.60;27.25;;;;;;;8.28;100.00;96441.59;5060996;28;20071;-50
2023/03/03 06:46:35;;;;;;;71.65;27.63;;;;;;;7.22;100.00;96443.47;5062626;28;20454;-53
2023/03/03 06:49:03;;;;;;;73.50;29.73;;;;;;;7.25;100.00;96441.41;5060435;28;20291;-53
2023/03/03 06:51:34;;;;;;;64.07;26.27;;;;;;;8.11;100.00;96447.44;5062683;28;20134;-50
2023/03/03 06:54:10;;;;;;;66.22;25.45;;;;;;;8.46;100.00;96451.50;5065803;28;20076;-51
2023/03/03 06:56:38;;;;;;;65.57;24.20;;;;;;;8.27;100.00;96463.56;5065572;28;20079;-52
2023/03/03 06:59:11;;;;;;;67.13;23.83;;;;;;;8.43;100.00;96467.53;5064945;28;20080;-56
2023/03/03 07:01:42;;;;;;;60.28;24.50;;;;;;;8.22;100.00;96470.16;5063579;28;20076;-52
2023/03/03 07:04:14;;;;;;;68.68;25.73;;;;;;;8.09;100.00;96479.09;5065849;28;20095;-54
2023/03/03 07:06:42;;;;;;;63.03;24.65;;;;;;;8.28;100.00;96474.91;5069764;28;20064;-51
2023/03/03 07:09:17;;;;;;;61.58;23.67;;;;;;;8.64;100.00;96475.41;5065167;28;20076;-55
2023/03/03 07:11:46;;;;;;;63.08;24.38;;;;;;;9.38;100.00;96475.03;5064467;28;20084;-46
2023/03/03 07:14:16;;;;;;;56.47;23.08;;;;;;;9.59;100.00;96477.53;5062441;28;20104;-50
2023/03/03 07:16:46;;;;;;;;;;;;;;;9.23;100.00;96475.44;5078733;28;20098;-53
2023/03/03 07:19:19;;;;;;;60.80;23.67;;;;;;;9.08;100.00;96482.03;5066523;28;20424;-55
2023/03/03 07:21:47;;;;;;;64.85;24.10;;;;;;;9.55;100.00;96478.78;5067463;28;20071;-51
2023/03/03 07:24:25;;;;;;;59.83;24.17;;;;;;;9.59;100.00;96482.81;5066111;28;20454;-49
2023/03/03 07:26:56;;;;;;;58.90;24.75;;;;;;;9.58;100.00;96486.41;5063990;28;20119;-53
2023/03/03 07:29:25;;;;;;;;;;;;;;;9.55;100.00;96482.25;5065348;28;20073;-52
2023/03/03 07:31:56;;;;;;;64.05;22.88;;;;;;;9.51;100.00;96486.13;5065482;28;19956;-52
2023/03/03 07:34:27;;;;;;;68.07;26.52;;;;;;;9.02;100.00;96483.41;5060017;28;20067;-53
2023/03/03 07:36:58;;;;;;;56.55;21.08;;;;;;;9.56;100.00;96478.63;5064297;28;20072;-52
2023/03/03 07:39:32;;;;;;;60.67;23.83;;;;;;;9.34;100.00;96481.53;5067034;28;20083;-52
2023/03/03 07:42:09;;;;;;;60.00;23.48;;;;;;;9.32;100.00;96479.03;5067385;28;20510;-49
2023/03/03 07:44:38;;;;;;;57.50;22.98;;;;;;;9.13;100.00;96479.00;5063419;28;20076;-50
2023/03/03 07:47:18;;;;;;;52.95;23.33;;;;;;;8.92;100.00;96479.09;5061632;28;20079;-53
2023/03/03 07:49:48;;;;;;;60.72;24.05;;;;;;;8.67;100.00;96483.84;5060968;28;20072;-55
2023/03/03 07:52:23;;;;;;;58.70;23.15;;;;;;;9.33;100.00;96485.97;5064771;28;20127;-51
2023/03/03 07:54:53;;;;;;;61.42;24.58;;;;;;;9.42;100.00;96489.56;5060101;28;20064;-47
2023/03/03 07:57:23;;;;;;;56.78;22.75;;;;;;;9.63;100.00;96489.44;5064759;28;20355;-50
2023/03/03 07:59:53;;;;;;;58.40;24.40;;;;;;;9.55;100.00;96499.84;5061184;28;20107;-51
2023/03/03 08:02:39;;;;;;;58.13;23.83;;;;;;;9.44;100.00;96499.00;5065814;28;20079;-54
2023/03/03 08:05:35;;;;;;;63.10;26.17;;;;;;;9.52;100.00;96500.94;5066328;28;20095;-50
2023/03/03 08:08:30;;;;;;;62.63;24.88;;;;;;;9.55;100.00;96498.03;5036589;28;20501;-48
2023/03/03 08:10:59;;;;;;;56.03;23.08;;;;;;;9.54;100.00;96499.03;5064023;28;20572;-50
2023/03/03 08:13:36;;;;;;;56.10;24.20;;;;;;;9.42;100.00;96505.38;5066772;28;20072;-53
2023/03/03 08:16:24;;;;;;;62.78;26.55;;;;;;;9.10;100.00;96511.66;5066570;28;20123;-51
2023/03/03 08:19:02;;;;;;;63.35;26.30;;;;;;;9.52;100.00;96509.66;5059801;28;20079;-52
2023/03/03 08:21:31;;;;;;;60.42;23.67;;;;;;;9.98;100.00;96507.34;5064951;28;20080;-56
2023/03/03 08:23:59;;;;;;;62.45;25.05;;;;;;;9.93;100.00;96506.91;5064060;28;20068;-52
2023/03/03 08:26:28;;;;;;;56.30;24.00;;;;;;;10.48;100.00;96504.50;5065438;28;20069;-49
2023/03/03 08:28:56;;;;;;;58.40;25.83;;;;;;;10.23;100.00;96506.75;5066293;28;20435;-49
2023/03/03 08:31:25;;;;;;;58.72;25.10;;;;;;;10.22;100.00;96509.53;5064352;28;20088;-50
2023/03/03 08:34:09;;;;;;;53.00;24.45;;;;;;;10.21;100.00;96508.69;5062788;28;20107;-48
2023/03/03 08:36:37;;;;;;;57.33;24.08;;;;;;;10.18;100.00;96513.41;5068277;28;20072;-48
2023/03/03 08:39:06;;;;;;;53.70;23.10;;;;;;;11.01;93.05;96513.63;5062523;28;20094;-50
2023/03/03 08:41:34;;;;;;;59.85;25.25;;;;;;;11.27;91.58;96497.94;5063830;28;20103;-54
2023/03/03 08:44:02;;;;;;;60.85;26.83;;;;;;;10.59;100.00;96512.25;5066038;28;20076;-55
2023/03/03 08:46:31;;;;;;;56.58;24.60;;;;;;;11.03;95.26;96509.03;5065416;28;20114;-51
2023/03/03 08:48:59;;;;;;;51.83;24.58;;;;;;;11.08;93.78;96506.78;5065584;28;20068;-49
2023/03/03 08:51:29;;;;;;;62.05;26.63;;;;;;;11.29;88.68;96511.84;5065085;28;20075;-48
2023/03/03 08:53:57;;;;;;;55.00;25.02;;;;;;;10.50;100.00;96518.41;5065525;28;20071;-53
2023/03/03 08:56:26;;;;;;;60.70;26.70;;;;;;;11.45;88.67;96511.16;5063349;28;20522;-49
2023/03/03 08:58:54;;;;;;;57.42;25.48;;;;;;;10.22;100.00;96526.19;5063373;28;20083;-50
2023/03/03 09:01:31;;;;;;;61.78;26.13;;;;;;;10.86;96.19;96526.47;5063434;28;20064;-52
2023/03/03 09:04:00;;;;;;;63.15;25.67;;;;;;;10.66;100.00;96517.78;5065832;28;20080;-48
2023/03/03 09:06:30;;;;;;;58.95;25.48;;;;;;;11.16;96.25;96520.91;5065376;28;20083;-54
2023/03/03 09:08:58;;;;;;;52.65;24.02;;;;;;;11.15;94.59;96519.25;5062023;28;20905;-50
2023/03/03 09:11:28;;;;;;;46.13;22.02;;;;;;;11.76;89.04;96515.13;5065182;28;20509;-53
2023/03/03 09:14:00;;;;;;;56.90;24.42;;;;;;;11.02;91.05;96520.59;5064151;28;20064;-53
2023/03/03 09:16:31;;;;;;;52.03;22.75;;;;;;;10.92;100.00;96528.53;5060912;28;20510;-51
2023/03/03 09:19:16;;;;;;;56.95;26.40;;;;;;;11.29;95.86;96530.31;5062262;28;20530;-52
2023/03/03 09:21:45;;;;;;;53.65;22.67;;;;;;;11.38;91.65;96524.13;5057405;28;20103;-49
2023/03/03 09:24:23;;;;;;;56.87;26.30;;;;;;;11.65;92.18;96520.63;5066144;28;20072;-51
2023/03/03 09:26:53;;;;;;;56.85;25.52;;;;;;;11.72;88.37;96532.25;5060623;28;20090;-49
2023/03/03 09:29:27;;;;;;;57.63;25.02;;;;;;;12.26;81.58;96532.28;5061126;28;20068;-54
2023/03/03 09:31:57;;;;;;;54.63;25.08;;;;;;;12.08;80.41;96535.78;5065881;28;20080;-49
2023/03/03 09:34:37;;;;;;;57.22;26.42;;;;;;;12.69;75.90;96531.41;5064881;28;20079;-50
2023/03/03 09:37:18;;;;;;;55.72;25.65;;;;;;;12.06;82.57;96532.44;5063527;28;20088;-52
2023/03/03 09:39:49;;;;;;;55.00;26.70;;;;;;;12.43;76.24;96536.72;5059900;28;20084;-53
2023/03/03 09:42:37;;;;;;;36.30;16.88;;;;;;;12.78;71.79;96535.78;5064912;28;20515;-52
2023/03/03 09:45:38;;;;;;;54.53;26.15;;;;;;;12.74;73.78;96537.09;5058279;28;20073;-51
2023/03/03 09:48:26;;;;;;;55.40;25.42;;;;;;;12.53;76.46;96544.56;5058994;28;20083;-52
2023/03/03 09:51:13;;;;;;;52.85;25.90;;;;;;;12.27;74.04;96549.78;5062317;28;20083;-54
2023/03/03 09:53:56;;;;;;;57.40;26.25;;;;;;;12.58;73.36;96555.47;5058810;28;20510;-49
2023/03/03 09:56:28;;;;;;;56.35;27.17;;;;;;;12.79;66.34;96560.41;5061965;28;20076;-52
2023/03/03 09:59:17;;;;;;;50.40;24.52;;;;;;;13.94;61.09;96546.69;5066001;28;20072;-53
2023/03/03 10:01:55;;;;;;;51.22;22.85;;;;;;;12.13;69.21;96553.00;5062698;28;20083;-49
2023/03/03 10:04:50;;;;;;;50.03;26.40;;;;;;;12.90;68.53;96552.22;5067036;28;20091;-51
2023/03/03 10:07:37;;;;;;;55.53;26.33;;;;;;;12.27;72.17;96560.38;5052137;28;20076;-49
2023/03/03 10:10:18;;;;;;;52.40;24.52;;;;;;;12.37;82.19;96552.34;5062579;28;20075;-53
2023/03/03 10:12:52;;;;;;;53.13;27.08;;;;;;;12.48;76.19;96552.94;5063070;28;20084;-49
2023/03/03 10:15:29;;;;;;;57.67;26.38;;;;;;;12.55;73.58;96553.97;5057678;28;20450;-51
2023/03/03 10:18:03;;;;;;;52.42;25.95;;;;;;;12.93;68.11;96551.91;5061017;28;20080;-48
2023/03/03 10:20:39;;;;;;;54.97;26.13;;;;;;;13.62;65.29;96543.94;5057580;28;20087;-53
2023/03/03 10:23:22;;;;;;;56.05;25.58;;;;;;;13.67;62.55;96545.13;5059686;28;20483;-53
2023/03/03 10:26:00;;;;;;;51.42;25.45;;;;;;;13.30;65.45;96556.09;5056145;28;20087;-49
2023/03/03 10:29:02;;;;;;;56.70;26.88;;;;;;;14.16;62.27;96541.72;5061000;28;20095;-46
2023/03/03 10:31:42;;;;;;;54.13;24.15;;;;;;;14.08;59.90;96552.34;5061131;28;20533;-54
2023/03/03 10:34:21;;;;;;;55.10;26.58;;;;;;;13.04;61.73;96553.44;5060625;28;22074;-54
2023/03/03 10:36:56;;;;;;;51.90;24.85;;;;;;;12.63;70.63;96550.56;5062495;28;20083;-52
2023/03/03 10:39:38;;;;;;;53.33;24.23;;;;;;;12.25;75.21;96559.69;5061318;28;20107;-48
2023/03/03 10:42:19;;;;;;;54.65;26.60;;;;;;;12.58;84.85;96564.25;5059788;28;20075;-54
2023/03/03 10:45:00;;;;;;;57.35;25.17;;;;;;;14.25;62.50;96559.31;5059107;28;20084;-49
2023/03/03 10:47:46;;;;;;;57.70;26.85;;;;;;;13.11;67.19;96569.53;5058750;28;20083;-53
2023/03/03 10:50:19;;;;;;;56.97;27.08;;;;;;;14.45;61.61;96565.09;5059630;28;20076;-47
2023/03/03 10:52:50;;;;;;;58.13;27.25;;;;;;;13.65;59.01;96567.47;5060390;28;20072;-50
2023/03/03 10:55:36;;;;;;;57.30;28.55;;;;;;;13.26;65.96;96589.19;5058852;28;20087;-50
2023/03/03 10:58:24;;;;;;;56.55;27.80;;;;;;;13.71;65.07;96565.00;5062385;28;20071;-47
2023/03/03 11:00:59;;;;;;;54.50;26.67;;;;;;;13.80;65.03;96575.63;5060375;28;20087;-50
2023/03/03 11:03:53;;;;;;;54.08;29.27;;;;;;;15.07;57.28;96561.91;5060991;28;20097;-53
2023/03/03 11:06:26;;;;;;;55.72;28.33;;;;;;;14.78;58.60;96562.47;5058169;28;20091;-47
2023/03/03 11:08:56;;;;;;;52.38;27.13;;;;;;;14.45;59.40;96565.09;5061422;28;20080;-49
2023/03/03 11:11:35;;;;;;;55.40;27.25;;;;;;;14.46;57.99;96556.16;5060165;28;20099;-52
2023/03/03 11:14:12;;;;;;;40.55;20.00;;;;;;;14.12;59.76;96553.66;5061822;28;20131;-52
2023/03/03 11:16:48;;;;;;;53.22;27.60;;;;;;;14.15;61.55;96546.22;5060317;28;20084;-50
2023/03/03 11:19:52;;;;;;;56.00;26.67;;;;;;;13.98;61.95;96541.88;5059264;28;20091;-51
2023/03/03 11:22:34;;;;;;;55.90;27.77;;;;;;;14.06;61.52;96546.34;5060165;28;20079;-50
2023/03/03 11:25:15;;;;;;;51.88;28.50;;;;;;;13.25;65.38;96546.00;5058911;28;20080;-50
2023/03/03 11:28:22;;;;;;;55.78;27.88;;;;;;;14.52;61.96;96539.63;5059987;28;20095;-50
2023/03/03 11:31:06;;;;;;;62.95;31.55;;;;;;;14.67;60.21;96537.09;5011587;28;20087;-49
2023/03/03 11:33:40;;;;;;;49.88;27.05;;;;;;;14.58;60.75;96538.91;5056033;28;20086;-50
2023/03/03 11:36:12;;;;;;;53.17;25.65;;;;;;;13.36;69.63;96541.38;5063796;28;20647;-51
2023/03/03 11:38:46;;;;;;;53.97;27.45;;;;;;;14.29;66.42;96541.25;5065543;28;20182;-53
2023/03/03 11:41:21;;;;;;;53.50;29.40;;;;;;;13.41;64.58;96536.44;5058769;28;20080;-52